sensor_id;sensor_type;location;lat;lon;timestamp;temperature;humidity
23377;DHT22;14353;46.070;13.222;2023-05-18T00:00:43;20.70;56.80
23377;DHT22;14353;46.070;13.222;2023-05-18T00:03:09;20.80;56.80
23377;DHT22;14353;46.070;13.222;2023-05-18T00:05:35;20.70;56.80
23377;DHT22;14353;46.070;13.222;2023-05-18T00:08:02;20.70;56.80
23377;DHT22;14353;46.070;13.222;2023-05-18T00:10:28;20.70;56.80
23377;DHT22;14353;46.070;13.222;2023-05-18T00:12:54;20.70;56.80
23377;DHT22;14353;46.070;13.222;2023-05-18T00:15:20;20.70;56.70
23377;DHT22;14353;46.070;13.222;2023-05-18T00:17:45;20.70;56.70
23377;DHT22;14353;46.070;13.222;2023-05-18T00:20:13;20.70;56.70
23377;DHT22;14353;46.070;13.222;2023-05-18T00:22:39;20.70;56.60
23377;DHT22;14353;46.070;13.222;2023-05-18T00:25:07;20.70;56.60
23377;DHT22;14353;46.070;13.222;2023-05-18T00:27:35;20.70;56.60
23377;DHT22;14353;46.070;13.222;2023-05-18T00:30:01;20.70;56.60
23377;DHT22;14353;46.070;13.222;2023-05-18T00:32:27;20.70;56.60
23377;DHT22;14353;46.070;13.222;2023-05-18T00:34:53;20.70;56.60
23377;DHT22;14353;46.070;13.222;2023-05-18T00:37:19;20.70;56.60
23377;DHT22;14353;46.070;13.222;2023-05-18T00:39:44;20.70;56.60
23377;DHT22;14353;46.070;13.222;2023-05-18T00:42:10;20.70;56.60
23377;DHT22;14353;46.070;13.222;2023-05-18T00:44:36;20.70;56.60
23377;DHT22;14353;46.070;13.222;2023-05-18T00:47:02;20.70;56.60
23377;DHT22;14353;46.070;13.222;2023-05-18T00:49:27;20.70;56.60
23377;DHT22;14353;46.070;13.222;2023-05-18T00:51:53;20.70;56.60
23377;DHT22;14353;46.070;13.222;2023-05-18T00:54:19;20.60;56.60
23377;DHT22;14353;46.070;13.222;2023-05-18T00:56:46;20.60;56.60
23377;DHT22;14353;46.070;13.222;2023-05-18T00:59:13;20.60;56.60
23377;DHT22;14353;46.070;13.222;2023-05-18T01:01:40;20.60;57.20
23377;DHT22;14353;46.070;13.222;2023-05-18T01:04:11;20.60;56.60
23377;DHT22;14353;46.070;13.222;2023-05-18T01:06:39;20.60;56.60
23377;DHT22;14353;46.070;13.222;2023-05-18T01:09:07;20.60;56.60
23377;DHT22;14353;46.070;13.222;2023-05-18T01:11:43;20.60;56.60
23377;DHT22;14353;46.070;13.222;2023-05-18T01:14:26;20.60;56.60
23377;DHT22;14353;46.070;13.222;2023-05-18T01:25:11;20.60;56.60
23377;DHT22;14353;46.070;13.222;2023-05-18T01:27:44;20.60;56.60
23377;DHT22;14353;46.070;13.222;2023-05-18T01:30:14;20.60;56.60
23377;DHT22;14353;46.070;13.222;2023-05-18T01:32:41;20.60;56.50
23377;DHT22;14353;46.070;13.222;2023-05-18T01:35:08;20.60;56.60
23377;DHT22;14353;46.070;13.222;2023-05-18T01:37:33;20.60;56.60
23377;DHT22;14353;46.070;13.222;2023-05-18T01:39:59;20.60;56.60
23377;DHT22;14353;46.070;13.222;2023-05-18T01:42:27;20.60;56.50
23377;DHT22;14353;46.070;13.222;2023-05-18T01:44:59;20.50;56.50
23377;DHT22;14353;46.070;13.222;2023-05-18T01:47:29;20.50;56.50
23377;DHT22;14353;46.070;13.222;2023-05-18T01:50:03;20.60;56.60
23377;DHT22;14353;46.070;13.222;2023-05-18T01:55:05;20.50;56.40
23377;DHT22;14353;46.070;13.222;2023-05-18T01:57:32;20.50;56.50
23377;DHT22;14353;46.070;13.222;2023-05-18T02:00:00;20.50;56.40
23377;DHT22;14353;46.070;13.222;2023-05-18T02:02:26;20.50;56.50
23377;DHT22;14353;46.070;13.222;2023-05-18T02:04:52;20.50;56.40
23377;DHT22;14353;46.070;13.222;2023-05-18T02:07:18;20.50;56.40
23377;DHT22;14353;46.070;13.222;2023-05-18T02:09:43;20.50;56.40
23377;DHT22;14353;46.070;13.222;2023-05-18T02:12:10;20.50;56.40
23377;DHT22;14353;46.070;13.222;2023-05-18T02:14:36;20.50;56.40
23377;DHT22;14353;46.070;13.222;2023-05-18T02:17:02;20.50;56.40
23377;DHT22;14353;46.070;13.222;2023-05-18T02:19:27;20.50;56.40
23377;DHT22;14353;46.070;13.222;2023-05-18T02:21:55;20.50;56.40
23377;DHT22;14353;46.070;13.222;2023-05-18T02:24:22;20.50;56.40
23377;DHT22;14353;46.070;13.222;2023-05-18T02:26:49;20.50;56.40
23377;DHT22;14353;46.070;13.222;2023-05-18T02:29:15;20.50;56.40
23377;DHT22;14353;46.070;13.222;2023-05-18T02:31:41;20.50;56.40
23377;DHT22;14353;46.070;13.222;2023-05-18T02:34:07;20.50;56.40
23377;DHT22;14353;46.070;13.222;2023-05-18T02:36:33;20.50;56.40
23377;DHT22;14353;46.070;13.222;2023-05-18T02:39:08;20.50;56.40
23377;DHT22;14353;46.070;13.222;2023-05-18T02:41:35;20.50;56.40
23377;DHT22;14353;46.070;13.222;2023-05-18T02:44:02;20.50;56.40
23377;DHT22;14353;46.070;13.222;2023-05-18T02:46:29;20.50;56.40
23377;DHT22;14353;46.070;13.222;2023-05-18T02:48:55;20.40;56.30
23377;DHT22;14353;46.070;13.222;2023-05-18T02:51:20;20.50;56.40
23377;DHT22;14353;46.070;13.222;2023-05-18T02:53:47;20.50;56.40
23377;DHT22;14353;46.070;13.222;2023-05-18T02:56:13;20.40;56.30
23377;DHT22;14353;46.070;13.222;2023-05-18T02:58:39;20.50;56.40
23377;DHT22;14353;46.070;13.222;2023-05-18T03:01:05;20.40;56.30
23377;DHT22;14353;46.070;13.222;2023-05-18T03:03:33;20.50;56.30
23377;DHT22;14353;46.070;13.222;2023-05-18T03:06:03;20.50;56.30
23377;DHT22;14353;46.070;13.222;2023-05-18T03:08:29;20.40;56.20
23377;DHT22;14353;46.070;13.222;2023-05-18T03:10:56;20.40;56.30
23377;DHT22;14353;46.070;13.222;2023-05-18T03:13:22;20.50;56.30
23377;DHT22;14353;46.070;13.222;2023-05-18T03:15:47;20.40;56.30
23377;DHT22;14353;46.070;13.222;2023-05-18T03:18:15;20.40;56.30
23377;DHT22;14353;46.070;13.222;2023-05-18T03:20:41;20.40;56.30
23377;DHT22;14353;46.070;13.222;2023-05-18T03:23:07;20.40;56.30
23377;DHT22;14353;46.070;13.222;2023-05-18T03:25:33;20.40;56.90
23377;DHT22;14353;46.070;13.222;2023-05-18T03:28:04;20.40;56.20
23377;DHT22;14353;46.070;13.222;2023-05-18T03:30:33;20.40;56.20
23377;DHT22;14353;46.070;13.222;2023-05-18T03:33:00;20.40;56.30
23377;DHT22;14353;46.070;13.222;2023-05-18T03:35:26;20.40;56.20
23377;DHT22;14353;46.070;13.222;2023-05-18T03:37:52;20.40;56.20
23377;DHT22;14353;46.070;13.222;2023-05-18T03:40:18;20.40;56.20
23377;DHT22;14353;46.070;13.222;2023-05-18T03:42:44;20.40;56.20
23377;DHT22;14353;46.070;13.222;2023-05-18T03:45:10;20.40;56.20
23377;DHT22;14353;46.070;13.222;2023-05-18T03:47:37;20.40;56.10
23377;DHT22;14353;46.070;13.222;2023-05-18T03:50:03;20.40;56.10
23377;DHT22;14353;46.070;13.222;2023-05-18T03:52:30;20.40;56.10
23377;DHT22;14353;46.070;13.222;2023-05-18T03:54:59;20.40;56.10
23377;DHT22;14353;46.070;13.222;2023-05-18T03:57:26;20.40;56.10
23377;DHT22;14353;46.070;13.222;2023-05-18T03:59:53;20.40;56.10
23377;DHT22;14353;46.070;13.222;2023-05-18T04:02:19;20.40;56.10
23377;DHT22;14353;46.070;13.222;2023-05-18T04:04:44;20.40;56.10
23377;DHT22;14353;46.070;13.222;2023-05-18T04:07:12;20.40;56.10
23377;DHT22;14353;46.070;13.222;2023-05-18T04:09:41;20.40;56.00
23377;DHT22;14353;46.070;13.222;2023-05-18T04:12:07;20.40;56.00
23377;DHT22;14353;46.070;13.222;2023-05-18T04:14:33;20.40;56.00
23377;DHT22;14353;46.070;13.222;2023-05-18T04:16:59;20.40;56.00
23377;DHT22;14353;46.070;13.222;2023-05-18T04:19:35;20.40;55.90
23377;DHT22;14353;46.070;13.222;2023-05-18T04:22:02;20.40;55.90
23377;DHT22;14353;46.070;13.222;2023-05-18T04:24:30;20.40;55.90
23377;DHT22;14353;46.070;13.222;2023-05-18T04:26:57;20.40;55.90
23377;DHT22;14353;46.070;13.222;2023-05-18T04:29:24;20.40;55.80
23377;DHT22;14353;46.070;13.222;2023-05-18T04:31:49;20.40;55.80
23377;DHT22;14353;46.070;13.222;2023-05-18T04:34:15;20.40;55.80
23377;DHT22;14353;46.070;13.222;2023-05-18T04:36:42;20.40;55.70
23377;DHT22;14353;46.070;13.222;2023-05-18T04:39:09;20.40;55.70
23377;DHT22;14353;46.070;13.222;2023-05-18T04:41:35;20.50;55.70
23377;DHT22;14353;46.070;13.222;2023-05-18T04:44:02;20.50;55.70
23377;DHT22;14353;46.070;13.222;2023-05-18T04:46:31;20.40;55.60
23377;DHT22;14353;46.070;13.222;2023-05-18T04:48:58;20.40;55.60
23377;DHT22;14353;46.070;13.222;2023-05-18T04:51:25;20.50;55.60
23377;DHT22;14353;46.070;13.222;2023-05-18T04:53:51;20.50;55.60
23377;DHT22;14353;46.070;13.222;2023-05-18T04:56:18;20.50;55.50
23377;DHT22;14353;46.070;13.222;2023-05-18T04:58:45;20.50;55.50
23377;DHT22;14353;46.070;13.222;2023-05-18T05:01:13;20.50;55.50
23377;DHT22;14353;46.070;13.222;2023-05-18T05:03:42;20.50;55.50
23377;DHT22;14353;46.070;13.222;2023-05-18T05:06:08;20.50;55.50
23377;DHT22;14353;46.070;13.222;2023-05-18T05:08:36;20.50;55.40
23377;DHT22;14353;46.070;13.222;2023-05-18T05:11:02;20.50;55.40
23377;DHT22;14353;46.070;13.222;2023-05-18T05:13:27;20.50;55.40
23377;DHT22;14353;46.070;13.222;2023-05-18T05:15:53;20.50;55.40
23377;DHT22;14353;46.070;13.222;2023-05-18T05:18:19;20.50;55.30
23377;DHT22;14353;46.070;13.222;2023-05-18T05:20:45;20.50;55.40
23377;DHT22;14353;46.070;13.222;2023-05-18T05:23:10;20.50;55.30
23377;DHT22;14353;46.070;13.222;2023-05-18T05:25:36;20.50;55.30
23377;DHT22;14353;46.070;13.222;2023-05-18T05:28:02;20.50;55.30
23377;DHT22;14353;46.070;13.222;2023-05-18T05:30:28;20.50;55.20
23377;DHT22;14353;46.070;13.222;2023-05-18T05:32:53;20.50;54.90
23377;DHT22;14353;46.070;13.222;2023-05-18T05:35:19;20.50;54.70
23377;DHT22;14353;46.070;13.222;2023-05-18T05:37:45;20.50;54.60
23377;DHT22;14353;46.070;13.222;2023-05-18T05:40:11;20.50;54.40
23377;DHT22;14353;46.070;13.222;2023-05-18T05:42:36;20.50;54.20
23377;DHT22;14353;46.070;13.222;2023-05-18T05:45:02;20.50;54.10
23377;DHT22;14353;46.070;13.222;2023-05-18T05:47:28;20.50;54.00
23377;DHT22;14353;46.070;13.222;2023-05-18T05:49:54;20.50;53.80
23377;DHT22;14353;46.070;13.222;2023-05-18T05:52:20;20.50;53.70
23377;DHT22;14353;46.070;13.222;2023-05-18T05:54:46;20.60;53.70
23377;DHT22;14353;46.070;13.222;2023-05-18T05:57:12;20.60;53.50
23377;DHT22;14353;46.070;13.222;2023-05-18T05:59:38;20.60;53.40
23377;DHT22;14353;46.070;13.222;2023-05-18T06:02:03;20.60;53.40
23377;DHT22;14353;46.070;13.222;2023-05-18T06:04:29;20.60;53.30
23377;DHT22;14353;46.070;13.222;2023-05-18T06:06:55;20.60;53.20
23377;DHT22;14353;46.070;13.222;2023-05-18T06:09:22;20.60;53.30
23377;DHT22;14353;46.070;13.222;2023-05-18T06:11:48;20.60;53.50
23377;DHT22;14353;46.070;13.222;2023-05-18T06:14:13;20.70;53.40
23377;DHT22;14353;46.070;13.222;2023-05-18T06:16:39;20.70;53.40
23377;DHT22;14353;46.070;13.222;2023-05-18T06:19:06;20.70;53.30
23377;DHT22;14353;46.070;13.222;2023-05-18T06:21:32;20.70;53.10
23377;DHT22;14353;46.070;13.222;2023-05-18T06:23:58;20.70;52.90
23377;DHT22;14353;46.070;13.222;2023-05-18T06:26:25;20.70;52.90
23377;DHT22;14353;46.070;13.222;2023-05-18T06:28:51;20.70;52.90
23377;DHT22;14353;46.070;13.222;2023-05-18T06:31:17;20.70;52.60
23377;DHT22;14353;46.070;13.222;2023-05-18T06:33:43;20.70;52.60
23377;DHT22;14353;46.070;13.222;2023-05-18T06:36:09;20.70;52.50
23377;DHT22;14353;46.070;13.222;2023-05-18T06:38:34;20.70;52.50
23377;DHT22;14353;46.070;13.222;2023-05-18T06:41:00;20.70;52.50
23377;DHT22;14353;46.070;13.222;2023-05-18T06:43:26;20.70;52.30
23377;DHT22;14353;46.070;13.222;2023-05-18T06:45:53;20.80;52.30
23377;DHT22;14353;46.070;13.222;2023-05-18T06:48:20;20.70;52.20
23377;DHT22;14353;46.070;13.222;2023-05-18T06:50:46;20.70;52.10
23377;DHT22;14353;46.070;13.222;2023-05-18T06:53:12;20.70;52.00
23377;DHT22;14353;46.070;13.222;2023-05-18T06:55:38;20.80;51.90
23377;DHT22;14353;46.070;13.222;2023-05-18T06:58:03;20.80;51.80
23377;DHT22;14353;46.070;13.222;2023-05-18T07:00:29;20.80;52.10
23377;DHT22;14353;46.070;13.222;2023-05-18T07:02:55;20.80;51.70
23377;DHT22;14353;46.070;13.222;2023-05-18T07:05:21;20.80;51.60
23377;DHT22;14353;46.070;13.222;2023-05-18T07:07:47;20.80;51.60
23377;DHT22;14353;46.070;13.222;2023-05-18T07:10:13;20.80;51.60
23377;DHT22;14353;46.070;13.222;2023-05-18T07:12:40;20.80;51.70
23377;DHT22;14353;46.070;13.222;2023-05-18T07:15:07;20.80;51.60
23377;DHT22;14353;46.070;13.222;2023-05-18T07:17:32;20.90;51.70
23377;DHT22;14353;46.070;13.222;2023-05-18T07:19:59;20.90;51.60
23377;DHT22;14353;46.070;13.222;2023-05-18T07:22:25;20.90;51.50
23377;DHT22;14353;46.070;13.222;2023-05-18T07:24:51;20.90;51.40
23377;DHT22;14353;46.070;13.222;2023-05-18T07:27:16;20.90;51.30
23377;DHT22;14353;46.070;13.222;2023-05-18T07:29:42;20.90;51.30
23377;DHT22;14353;46.070;13.222;2023-05-18T07:32:08;20.90;51.20
23377;DHT22;14353;46.070;13.222;2023-05-18T07:34:34;20.90;51.10
23377;DHT22;14353;46.070;13.222;2023-05-18T07:36:59;21.00;51.10
23377;DHT22;14353;46.070;13.222;2023-05-18T07:39:25;21.00;51.00
23377;DHT22;14353;46.070;13.222;2023-05-18T07:41:54;21.10;51.00
23377;DHT22;14353;46.070;13.222;2023-05-18T07:44:20;21.10;50.90
23377;DHT22;14353;46.070;13.222;2023-05-18T07:46:46;21.10;50.80
23377;DHT22;14353;46.070;13.222;2023-05-18T07:49:11;21.20;50.60
23377;DHT22;14353;46.070;13.222;2023-05-18T07:51:37;21.20;50.70
23377;DHT22;14353;46.070;13.222;2023-05-18T07:54:03;21.30;50.60
23377;DHT22;14353;46.070;13.222;2023-05-18T07:56:29;21.30;50.60
23377;DHT22;14353;46.070;13.222;2023-05-18T07:58:56;21.40;50.50
23377;DHT22;14353;46.070;13.222;2023-05-18T08:01:21;21.40;50.20
23377;DHT22;14353;46.070;13.222;2023-05-18T08:03:51;21.50;50.40
23377;DHT22;14353;46.070;13.222;2023-05-18T08:06:17;21.60;50.40
23377;DHT22;14353;46.070;13.222;2023-05-18T08:08:43;21.60;50.50
23377;DHT22;14353;46.070;13.222;2023-05-18T08:11:09;21.60;50.30
23377;DHT22;14353;46.070;13.222;2023-05-18T08:13:36;21.60;50.30
23377;DHT22;14353;46.070;13.222;2023-05-18T08:16:02;21.60;50.20
23377;DHT22;14353;46.070;13.222;2023-05-18T08:18:28;21.60;50.20
23377;DHT22;14353;46.070;13.222;2023-05-18T08:20:54;21.60;50.30
23377;DHT22;14353;46.070;13.222;2023-05-18T08:23:20;21.60;50.10
23377;DHT22;14353;46.070;13.222;2023-05-18T08:25:46;21.50;50.00
23377;DHT22;14353;46.070;13.222;2023-05-18T08:28:12;21.60;50.00
23377;DHT22;14353;46.070;13.222;2023-05-18T08:30:37;21.60;49.90
23377;DHT22;14353;46.070;13.222;2023-05-18T08:33:03;21.60;49.90
23377;DHT22;14353;46.070;13.222;2023-05-18T08:35:29;21.50;50.00
23377;DHT22;14353;46.070;13.222;2023-05-18T08:37:54;21.60;49.80
23377;DHT22;14353;46.070;13.222;2023-05-18T08:40:20;21.60;49.70
23377;DHT22;14353;46.070;13.222;2023-05-18T08:43:10;21.60;49.70
23377;DHT22;14353;46.070;13.222;2023-05-18T08:48:27;21.70;49.60
23377;DHT22;14353;46.070;13.222;2023-05-18T08:50:57;21.70;49.60
23377;DHT22;14353;46.070;13.222;2023-05-18T08:53:24;21.70;49.90
23377;DHT22;14353;46.070;13.222;2023-05-18T08:55:53;21.80;49.80
23377;DHT22;14353;46.070;13.222;2023-05-18T08:58:21;21.80;50.30
23377;DHT22;14353;46.070;13.222;2023-05-18T09:00:51;21.90;50.10
23377;DHT22;14353;46.070;13.222;2023-05-18T09:03:19;21.90;49.90
23377;DHT22;14353;46.070;13.222;2023-05-18T09:05:45;22.00;49.90
23377;DHT22;14353;46.070;13.222;2023-05-18T09:08:11;22.00;49.80
23377;DHT22;14353;46.070;13.222;2023-05-18T09:10:38;22.10;49.60
23377;DHT22;14353;46.070;13.222;2023-05-18T09:13:05;22.20;49.60
23377;DHT22;14353;46.070;13.222;2023-05-18T09:15:32;22.20;49.70
23377;DHT22;14353;46.070;13.222;2023-05-18T09:17:59;22.20;49.60
23377;DHT22;14353;46.070;13.222;2023-05-18T09:20:26;22.30;49.60
23377;DHT22;14353;46.070;13.222;2023-05-18T09:22:52;22.30;49.50
23377;DHT22;14353;46.070;13.222;2023-05-18T09:25:20;22.30;49.40
23377;DHT22;14353;46.070;13.222;2023-05-18T09:27:47;22.30;49.40
23377;DHT22;14353;46.070;13.222;2023-05-18T09:30:13;22.40;49.30
23377;DHT22;14353;46.070;13.222;2023-05-18T09:32:39;22.40;49.30
23377;DHT22;14353;46.070;13.222;2023-05-18T09:35:07;22.40;49.30
23377;DHT22;14353;46.070;13.222;2023-05-18T09:37:33;22.30;49.30
23377;DHT22;14353;46.070;13.222;2023-05-18T09:40:00;22.30;49.50
23377;DHT22;14353;46.070;13.222;2023-05-18T09:42:40;22.30;49.50
23377;DHT22;14353;46.070;13.222;2023-05-18T09:47:45;22.30;49.60
23377;DHT22;14353;46.070;13.222;2023-05-18T09:50:11;22.30;49.60
23377;DHT22;14353;46.070;13.222;2023-05-18T09:52:41;22.30;49.50
23377;DHT22;14353;46.070;13.222;2023-05-18T09:55:07;22.30;49.40
23377;DHT22;14353;46.070;13.222;2023-05-18T09:57:41;22.20;48.30
23377;DHT22;14353;46.070;13.222;2023-05-18T10:00:09;22.20;47.60
23377;DHT22;14353;46.070;13.222;2023-05-18T10:02:43;22.20;47.50
23377;DHT22;14353;46.070;13.222;2023-05-18T10:05:22;22.10;47.20
23377;DHT22;14353;46.070;13.222;2023-05-18T10:07:53;22.10;47.40
23377;DHT22;14353;46.070;13.222;2023-05-18T10:10:21;22.10;48.40
23377;DHT22;14353;46.070;13.222;2023-05-18T10:12:49;22.20;48.60
23377;DHT22;14353;46.070;13.222;2023-05-18T10:15:17;22.20;49.30
23377;DHT22;14353;46.070;13.222;2023-05-18T10:17:45;22.30;49.00
23377;DHT22;14353;46.070;13.222;2023-05-18T10:20:14;22.40;49.20
23377;DHT22;14353;46.070;13.222;2023-05-18T10:22:45;22.40;48.90
23377;DHT22;14353;46.070;13.222;2023-05-18T10:25:11;22.40;48.20
23377;DHT22;14353;46.070;13.222;2023-05-18T10:27:40;22.50;48.60
23377;DHT22;14353;46.070;13.222;2023-05-18T10:30:09;22.50;48.50
23377;DHT22;14353;46.070;13.222;2023-05-18T10:32:35;22.50;48.00
23377;DHT22;14353;46.070;13.222;2023-05-18T10:35:03;22.60;48.40
23377;DHT22;14353;46.070;13.222;2023-05-18T10:37:34;22.60;48.60
23377;DHT22;14353;46.070;13.222;2023-05-18T10:40:02;22.60;48.30
23377;DHT22;14353;46.070;13.222;2023-05-18T10:42:29;22.70;48.40
23377;DHT22;14353;46.070;13.222;2023-05-18T10:44:59;22.70;48.40
23377;DHT22;14353;46.070;13.222;2023-05-18T10:47:28;22.70;48.10
23377;DHT22;14353;46.070;13.222;2023-05-18T10:49:57;22.80;47.80
23377;DHT22;14353;46.070;13.222;2023-05-18T10:52:24;22.80;47.70
23377;DHT22;14353;46.070;13.222;2023-05-18T10:54:57;22.80;47.60
23377;DHT22;14353;46.070;13.222;2023-05-18T10:57:28;22.80;47.70
23377;DHT22;14353;46.070;13.222;2023-05-18T10:59:56;22.80;47.70
23377;DHT22;14353;46.070;13.222;2023-05-18T11:02:23;22.80;47.70
23377;DHT22;14353;46.070;13.222;2023-05-18T11:04:52;22.80;48.00
23377;DHT22;14353;46.070;13.222;2023-05-18T11:07:19;22.80;47.30
23377;DHT22;14353;46.070;13.222;2023-05-18T11:09:48;22.80;45.20
23377;DHT22;14353;46.070;13.222;2023-05-18T11:12:15;22.80;44.80
23377;DHT22;14353;46.070;13.222;2023-05-18T11:14:52;22.90;43.10
23377;DHT22;14353;46.070;13.222;2023-05-18T11:17:22;22.90;43.80
23377;DHT22;14353;46.070;13.222;2023-05-18T11:27:53;22.90;44.90
23377;DHT22;14353;46.070;13.222;2023-05-18T11:38:53;23.10;45.00
23377;DHT22;14353;46.070;13.222;2023-05-18T11:41:34;23.10;43.80
23377;DHT22;14353;46.070;13.222;2023-05-18T11:44:04;23.20;43.60
23377;DHT22;14353;46.070;13.222;2023-05-18T11:46:35;23.20;43.40
23377;DHT22;14353;46.070;13.222;2023-05-18T11:49:06;23.10;43.30
23377;DHT22;14353;46.070;13.222;2023-05-18T11:51:33;23.10;42.60
23377;DHT22;14353;46.070;13.222;2023-05-18T11:54:23;23.20;43.20
23377;DHT22;14353;46.070;13.222;2023-05-18T11:56:51;23.20;43.40
23377;DHT22;14353;46.070;13.222;2023-05-18T11:59:17;23.20;43.30
23377;DHT22;14353;46.070;13.222;2023-05-18T12:01:42;23.20;43.60
23377;DHT22;14353;46.070;13.222;2023-05-18T12:04:08;23.20;43.80
23377;DHT22;14353;46.070;13.222;2023-05-18T12:06:36;23.20;43.80
23377;DHT22;14353;46.070;13.222;2023-05-18T12:09:02;23.20;43.90
23377;DHT22;14353;46.070;13.222;2023-05-18T12:11:30;23.20;44.00
23377;DHT22;14353;46.070;13.222;2023-05-18T12:13:56;23.20;43.80
23377;DHT22;14353;46.070;13.222;2023-05-18T12:16:22;23.20;43.60
23377;DHT22;14353;46.070;13.222;2023-05-18T12:18:50;23.20;43.70
23377;DHT22;14353;46.070;13.222;2023-05-18T12:21:22;23.20;43.60
23377;DHT22;14353;46.070;13.222;2023-05-18T12:23:59;23.20;43.40
23377;DHT22;14353;46.070;13.222;2023-05-18T12:26:25;23.20;43.60
23377;DHT22;14353;46.070;13.222;2023-05-18T12:28:53;23.20;43.70
23377;DHT22;14353;46.070;13.222;2023-05-18T12:31:19;23.20;43.10
23377;DHT22;14353;46.070;13.222;2023-05-18T12:33:45;23.30;43.60
23377;DHT22;14353;46.070;13.222;2023-05-18T12:36:12;23.30;43.60
23377;DHT22;14353;46.070;13.222;2023-05-18T12:38:38;23.30;43.80
23377;DHT22;14353;46.070;13.222;2023-05-18T12:41:04;23.20;43.90
23377;DHT22;14353;46.070;13.222;2023-05-18T12:43:34;23.30;44.10
23377;DHT22;14353;46.070;13.222;2023-05-18T12:46:04;23.20;44.00
23377;DHT22;14353;46.070;13.222;2023-05-18T12:48:37;23.30;44.10
23377;DHT22;14353;46.070;13.222;2023-05-18T12:51:20;23.30;44.10
23377;DHT22;14353;46.070;13.222;2023-05-18T12:53:47;23.30;44.30
23377;DHT22;14353;46.070;13.222;2023-05-18T12:56:14;23.30;44.30
23377;DHT22;14353;46.070;13.222;2023-05-18T12:58:52;23.30;44.30
23377;DHT22;14353;46.070;13.222;2023-05-18T13:01:19;23.40;44.40
23377;DHT22;14353;46.070;13.222;2023-05-18T13:03:45;23.30;44.40
23377;DHT22;14353;46.070;13.222;2023-05-18T13:06:11;23.30;44.40
23377;DHT22;14353;46.070;13.222;2023-05-18T13:08:37;23.40;44.50
23377;DHT22;14353;46.070;13.222;2023-05-18T13:11:07;23.40;44.50
23377;DHT22;14353;46.070;13.222;2023-05-18T13:13:33;23.50;44.60
23377;DHT22;14353;46.070;13.222;2023-05-18T13:15:59;23.50;44.60
23377;DHT22;14353;46.070;13.222;2023-05-18T13:18:27;23.50;44.50
23377;DHT22;14353;46.070;13.222;2023-05-18T13:20:55;23.50;44.40
23377;DHT22;14353;46.070;13.222;2023-05-18T13:23:30;23.60;44.50
23377;DHT22;14353;46.070;13.222;2023-05-18T13:25:55;23.60;44.60
23377;DHT22;14353;46.070;13.222;2023-05-18T13:28:22;23.60;44.40
23377;DHT22;14353;46.070;13.222;2023-05-18T13:30:48;23.60;44.40
23377;DHT22;14353;46.070;13.222;2023-05-18T13:33:15;23.60;44.60
23377;DHT22;14353;46.070;13.222;2023-05-18T13:35:43;23.60;44.60
23377;DHT22;14353;46.070;13.222;2023-05-18T13:38:10;23.60;44.50
23377;DHT22;14353;46.070;13.222;2023-05-18T13:40:37;23.70;44.60
23377;DHT22;14353;46.070;13.222;2023-05-18T13:43:03;23.70;44.60
23377;DHT22;14353;46.070;13.222;2023-05-18T13:45:30;23.70;44.60
23377;DHT22;14353;46.070;13.222;2023-05-18T13:47:57;23.70;44.60
23377;DHT22;14353;46.070;13.222;2023-05-18T13:50:23;23.70;44.60
23377;DHT22;14353;46.070;13.222;2023-05-18T13:52:50;23.80;44.70
23377;DHT22;14353;46.070;13.222;2023-05-18T13:55:17;23.70;44.70
23377;DHT22;14353;46.070;13.222;2023-05-18T13:57:44;23.70;44.70
23377;DHT22;14353;46.070;13.222;2023-05-18T14:00:10;23.80;44.80
23377;DHT22;14353;46.070;13.222;2023-05-18T14:02:41;23.80;44.80
23377;DHT22;14353;46.070;13.222;2023-05-18T14:05:08;23.80;44.80
23377;DHT22;14353;46.070;13.222;2023-05-18T14:07:38;23.80;44.80
23377;DHT22;14353;46.070;13.222;2023-05-18T14:10:04;23.80;44.90
23377;DHT22;14353;46.070;13.222;2023-05-18T14:12:30;23.80;44.90
23377;DHT22;14353;46.070;13.222;2023-05-18T14:14:57;23.70;45.00
23377;DHT22;14353;46.070;13.222;2023-05-18T14:17:23;23.70;43.80
23377;DHT22;14353;46.070;13.222;2023-05-18T14:19:49;23.60;43.40
23377;DHT22;14353;46.070;13.222;2023-05-18T14:22:14;23.60;42.70
23377;DHT22;14353;46.070;13.222;2023-05-18T14:24:41;23.60;42.50
23377;DHT22;14353;46.070;13.222;2023-05-18T14:27:07;23.60;42.80
23377;DHT22;14353;46.070;13.222;2023-05-18T14:29:33;23.50;43.00
23377;DHT22;14353;46.070;13.222;2023-05-18T14:31:59;23.50;42.70
23377;DHT22;14353;46.070;13.222;2023-05-18T14:34:28;23.50;42.60
23377;DHT22;14353;46.070;13.222;2023-05-18T14:36:53;23.50;43.50
23377;DHT22;14353;46.070;13.222;2023-05-18T14:39:19;23.50;43.60
23377;DHT22;14353;46.070;13.222;2023-05-18T14:41:45;23.50;43.70
23377;DHT22;14353;46.070;13.222;2023-05-18T14:44:10;23.50;43.80
23377;DHT22;14353;46.070;13.222;2023-05-18T14:46:38;23.50;43.80
23377;DHT22;14353;46.070;13.222;2023-05-18T14:49:04;23.50;43.80
23377;DHT22;14353;46.070;13.222;2023-05-18T14:51:30;23.50;43.90
23377;DHT22;14353;46.070;13.222;2023-05-18T14:53:56;23.50;44.00
23377;DHT22;14353;46.070;13.222;2023-05-18T14:56:21;23.50;44.10
23377;DHT22;14353;46.070;13.222;2023-05-18T14:58:47;23.50;44.10
23377;DHT22;14353;46.070;13.222;2023-05-18T15:01:13;23.50;44.20
23377;DHT22;14353;46.070;13.222;2023-05-18T15:03:39;23.60;44.30
23377;DHT22;14353;46.070;13.222;2023-05-18T15:06:04;23.50;44.40
23377;DHT22;14353;46.070;13.222;2023-05-18T15:08:30;23.50;44.40
23377;DHT22;14353;46.070;13.222;2023-05-18T15:10:56;23.60;44.50
23377;DHT22;14353;46.070;13.222;2023-05-18T15:13:22;23.60;44.60
23377;DHT22;14353;46.070;13.222;2023-05-18T15:15:48;23.50;44.60
23377;DHT22;14353;46.070;13.222;2023-05-18T15:18:14;23.50;44.70
23377;DHT22;14353;46.070;13.222;2023-05-18T15:20:39;23.50;44.80
23377;DHT22;14353;46.070;13.222;2023-05-18T15:23:09;23.50;44.90
23377;DHT22;14353;46.070;13.222;2023-05-18T15:25:36;23.50;45.00
23377;DHT22;14353;46.070;13.222;2023-05-18T15:28:01;23.50;45.00
23377;DHT22;14353;46.070;13.222;2023-05-18T15:30:27;23.50;45.10
23377;DHT22;14353;46.070;13.222;2023-05-18T15:32:55;23.40;45.10
23377;DHT22;14353;46.070;13.222;2023-05-18T15:35:21;23.40;45.10
23377;DHT22;14353;46.070;13.222;2023-05-18T15:37:47;23.40;45.90
23377;DHT22;14353;46.070;13.222;2023-05-18T15:40:15;23.40;45.30
23377;DHT22;14353;46.070;13.222;2023-05-18T15:42:41;23.40;45.40
23377;DHT22;14353;46.070;13.222;2023-05-18T15:45:08;23.30;45.50
23377;DHT22;14353;46.070;13.222;2023-05-18T15:47:34;23.30;45.50